createdAt,value
2018-01-01T00:00:25.658Z,9.63
2018-01-01T00:01:34.270Z,9.64
2018-01-01T00:02:42.865Z,9.59
2018-01-01T00:03:51.469Z,9.63
2018-01-01T00:05:00.094Z,9.54
2018-01-01T00:06:08.689Z,9.56
2018-01-01T00:07:17.284Z,9.52
2018-01-01T00:08:25.901Z,9.54
2018-01-01T00:09:34.765Z,9.56
2018-01-01T00:10:43.622Z,9.55
2018-01-01T00:11:52.502Z,9.47
2018-01-01T00:13:01.106Z,9.52
2018-01-01T00:14:09.710Z,9.45
2018-01-01T00:15:18.308Z,9.45
2018-01-01T00:16:26.911Z,9.51
2018-01-01T00:17:35.519Z,9.39
2018-01-01T00:18:44.119Z,9.44
2018-01-01T00:19:52.718Z,9.45
2018-01-01T00:21:01.600Z,9.47
2018-01-01T00:22:10.207Z,9.51
2018-01-01T00:23:18.799Z,9.52
2018-01-01T00:24:27.409Z,9.51
2018-01-01T00:25:36.019Z,9.55
2018-01-01T00:26:44.617Z,9.37
2018-01-01T00:27:53.224Z,9.49
2018-01-01T00:29:01.820Z,9.44
2018-01-01T00:30:10.435Z,9.45
2018-01-01T00:31:19.044Z,9.47
2018-01-01T00:32:27.636Z,9.45
2018-01-01T00:33:36.244Z,9.44
2018-01-01T00:34:44.851Z,9.4
2018-01-01T00:35:53.450Z,9.49
2018-01-01T00:37:02.313Z,9.42
2018-01-01T00:38:10.931Z,9.4
2018-01-01T00:39:19.522Z,9.34
2018-01-01T00:40:28.123Z,9.36
2018-01-01T00:41:36.732Z,9.47
2018-01-01T00:42:45.330Z,9.4
2018-01-01T00:43:53.927Z,9.39
2018-01-01T00:45:02.543Z,9.47
2018-01-01T00:46:11.142Z,9.45
2018-01-01T00:47:19.740Z,9.42
2018-01-01T00:48:28.351Z,9.44
2018-01-01T00:49:37.219Z,9.44
2018-01-01T00:50:45.804Z,9.48
2018-01-01T00:51:54.946Z,9.4
2018-01-01T00:53:03.557Z,9.44
2018-01-01T00:54:12.413Z,9.42
2018-01-01T00:55:21.017Z,9.31
2018-01-01T00:56:29.627Z,9.36
2018-01-01T00:57:38.225Z,9.34
2018-01-01T00:58:46.831Z,9.36
2018-01-01T00:59:55.424Z,9.36
2018-01-01T01:01:04.035Z,9.34
2018-01-01T01:02:12.644Z,9.33
2018-01-01T01:03:21.498Z,9.33
2018-01-01T01:04:30.104Z,9.39
2018-01-01T01:05:38.721Z,9.33
2018-01-01T01:06:47.311Z,9.34
2018-01-01T01:07:56.171Z,9.29
2018-01-01T01:09:04.783Z,9.39
2018-01-01T01:10:13.385Z,9.37
2018-01-01T01:11:21.984Z,9.3
2018-01-01T01:12:30.588Z,9.3
2018-01-01T01:13:39.191Z,9.34
2018-01-01T01:14:47.804Z,9.18
2018-01-01T01:15:56.395Z,9.33
2018-01-01T01:17:04.996Z,9.24
2018-01-01T01:18:13.611Z,9.21
2018-01-01T01:19:22.207Z,9.19
2018-01-01T01:20:30.809Z,9.19
2018-01-01T01:21:39.426Z,9.15
2018-01-01T01:22:48.025Z,9.15
2018-01-01T01:23:56.619Z,9.13
2018-01-01T01:25:05.270Z,9.21
2018-01-01T01:26:13.834Z,9.21
2018-01-01T01:27:22.441Z,9.19
2018-01-01T01:28:31.037Z,9.19
2018-01-01T01:29:39.635Z,9.26
2018-01-01T01:30:48.249Z,9.13
2018-01-01T01:31:56.851Z,9.11
2018-01-01T01:33:05.444Z,9.08
2018-01-01T01:34:14.055Z,9
2018-01-01T01:35:22.665Z,9
2018-01-01T01:36:31.253Z,9.02
2018-01-01T01:37:39.864Z,8.93
2018-01-01T01:38:48.731Z,9
2018-01-01T01:39:57.325Z,8.95
2018-01-01T01:41:05.937Z,9.05
2018-01-01T01:42:14.537Z,8.99
2018-01-01T01:43:23.148Z,9
2018-01-01T01:44:31.752Z,8.97
2018-01-01T01:45:40.599Z,8.99
2018-01-01T01:46:49.209Z,9.03
2018-01-01T01:47:57.819Z,8.96
2018-01-01T01:49:06.411Z,8.95
2018-01-01T01:50:15.016Z,9.02
2018-01-01T01:51:23.630Z,9.12
2018-01-01T01:52:32.475Z,9.11
2018-01-01T01:53:41.076Z,9.18
2018-01-01T01:54:49.689Z,9.19
2018-01-01T01:55:58.287Z,9.19
2018-01-01T01:57:06.890Z,9.27
2018-01-01T01:58:15.484Z,9.24
2018-01-01T01:59:24.352Z,9.34
2018-01-01T02:00:32.969Z,9.31
2018-01-01T02:01:41.562Z,9.36
2018-01-01T02:02:50.164Z,9.34
2018-01-01T02:03:59.305Z,9.3
2018-01-01T02:05:07.900Z,9.39
2018-01-01T02:06:16.760Z,9.33
2018-01-01T02:07:25.377Z,9.21
2018-01-01T02:08:33.977Z,9.34
2018-01-01T02:09:42.567Z,9.3
2018-01-01T02:10:51.177Z,9.29
2018-01-01T02:11:59.784Z,9.24
2018-01-01T02:13:08.392Z,9.4
2018-01-01T02:14:16.987Z,9.3
2018-01-01T02:15:25.585Z,9.34
2018-01-01T02:16:34.199Z,9.33
2018-01-01T02:17:42.801Z,9.34
2018-01-01T02:18:51.391Z,9.31
2018-01-01T02:20:00.008Z,9.33
2018-01-01T02:21:08.611Z,9.3
2018-01-01T02:22:17.205Z,9.37
2018-01-01T02:23:25.810Z,9.31
2018-01-01T02:24:34.421Z,9.22
2018-01-01T02:25:43.021Z,9.24
2018-01-01T02:26:51.620Z,9.33
2018-01-01T02:28:00.217Z,9.33
2018-01-01T02:29:08.830Z,9.36
2018-01-01T02:30:17.437Z,9.29
2018-01-01T02:31:26.028Z,9.21
2018-01-01T02:32:34.634Z,9.31
2018-01-01T02:33:43.244Z,9.21
2018-01-01T02:34:51.839Z,9.18
2018-01-01T02:36:00.443Z,9.18
2018-01-01T02:37:09.056Z,9.19
2018-01-01T02:38:17.649Z,9.22
2018-01-01T02:39:26.250Z,9.21
2018-01-01T02:40:34.868Z,9.21
2018-01-01T02:41:43.463Z,9.19
2018-01-01T02:42:52.060Z,9.22
2018-01-01T02:44:00.676Z,9.24
2018-01-01T02:45:09.278Z,9.19
2018-01-01T02:46:18.123Z,9.16
2018-01-01T02:47:26.736Z,9.19
2018-01-01T02:48:35.346Z,9.16
2018-01-01T02:49:43.941Z,9.24
2018-01-01T02:50:52.548Z,9.24
2018-01-01T02:52:01.425Z,9.21
2018-01-01T02:53:10.023Z,9.24
2018-01-01T02:54:18.629Z,9.26
2018-01-01T02:55:27.490Z,9.13
2018-01-01T02:56:36.099Z,9.19
2018-01-01T02:57:44.705Z,9.16
2018-01-01T02:58:53.298Z,9.16
2018-01-01T03:00:01.913Z,9.12
2018-01-01T03:01:10.789Z,9.15
2018-01-01T03:02:19.378Z,9.09
2018-01-01T03:03:27.981Z,9.09
2018-01-01T03:04:36.592Z,9.03
2018-01-01T03:05:45.188Z,9.12
2018-01-01T03:06:53.787Z,9.05
2018-01-01T03:08:02.403Z,9.12
2018-01-01T03:09:10.996Z,9.11
2018-01-01T03:10:19.601Z,9.09
2018-01-01T03:11:28.196Z,9.09
2018-01-01T03:12:36.803Z,9.09
2018-01-01T03:13:45.415Z,9.16
2018-01-01T03:14:54.004Z,9.15
2018-01-01T03:16:02.601Z,9.16
2018-01-01T03:17:11.215Z,9.13
2018-01-01T03:18:19.810Z,9.08
2018-01-01T03:19:28.415Z,9.13
2018-01-01T03:20:37.024Z,9.05
2018-01-01T03:21:45.620Z,9.08
2018-01-01T03:22:54.213Z,9
2018-01-01T03:24:03.081Z,9.02
2018-01-01T03:25:11.683Z,9.03
2018-01-01T03:26:20.294Z,9.05
2018-01-01T03:27:28.889Z,9.15
2018-01-01T03:28:37.483Z,9.02
2018-01-01T03:29:46.100Z,9.08
2018-01-01T03:30:54.703Z,9.12
2018-01-01T03:32:03.293Z,9.08
2018-01-01T03:33:11.903Z,9.03
2018-01-01T03:34:20.507Z,9.02
2018-01-01T03:35:29.102Z,9.12
2018-01-01T03:36:37.709Z,9.08
2018-01-01T03:37:46.317Z,9
2018-01-01T03:38:54.919Z,9.02
2018-01-01T03:40:03.519Z,9.03
2018-01-01T03:41:12.112Z,9
2018-01-01T03:42:20.724Z,8.92
2018-01-01T03:43:29.329Z,8.97
2018-01-01T03:44:37.920Z,8.9
2018-01-01T03:45:46.525Z,8.9
2018-01-01T03:46:55.136Z,8.92
2018-01-01T03:48:03.999Z,8.87
2018-01-01T03:49:12.606Z,8.82
2018-01-01T03:50:21.219Z,8.89
2018-01-01T03:51:29.810Z,8.74
2018-01-01T03:52:38.407Z,8.72
2018-01-01T03:53:47.007Z,8.64
2018-01-01T03:54:55.622Z,8.69
2018-01-01T03:56:04.226Z,8.72
2018-01-01T03:57:12.823Z,8.69
2018-01-01T03:58:21.425Z,8.66
2018-01-01T03:59:30.039Z,8.68
2018-01-01T04:00:38.633Z,8.69
2018-01-01T04:01:47.233Z,8.69
2018-01-01T04:02:55.848Z,8.61
2018-01-01T04:04:04.439Z,8.71
2018-01-01T04:05:13.038Z,8.66
2018-01-01T04:06:21.646Z,8.59
2018-01-01T04:07:30.248Z,8.57
2018-01-01T04:08:38.854Z,8.59
2018-01-01T04:09:47.446Z,8.61
2018-01-01T04:10:56.044Z,8.63
2018-01-01T04:12:04.659Z,8.63
2018-01-01T04:13:13.256Z,8.56
2018-01-01T04:14:21.857Z,8.56
2018-01-01T04:15:30.498Z,8.53
2018-01-01T04:16:39.070Z,8.57
2018-01-01T04:17:47.659Z,8.6
2018-01-01T04:18:56.271Z,8.56
2018-01-01T04:20:04.874Z,8.59
2018-01-01T04:21:13.467Z,8.5
2018-01-01T04:22:22.079Z,8.41
2018-01-01T04:23:30.675Z,8.44
2018-01-01T04:24:39.543Z,8.39
2018-01-01T04:25:48.143Z,8.32
2018-01-01T04:26:56.735Z,8.35
2018-01-01T04:28:05.347Z,8.32
2018-01-01T04:29:13.952Z,8.27
2018-01-01T04:30:22.546Z,8.31
2018-01-01T04:31:31.154Z,8.39
2018-01-01T04:32:39.764Z,8.42
2018-01-01T04:33:48.355Z,8.45
2018-01-01T04:34:56.963Z,8.46
2018-01-01T04:36:05.572Z,8.34
2018-01-01T04:37:14.166Z,8.49
2018-01-01T04:38:22.764Z,8.45
2018-01-01T04:39:31.381Z,8.42
2018-01-01T04:40:39.979Z,8.42
2018-01-01T04:41:48.573Z,8.39
2018-01-01T04:42:57.186Z,8.41
2018-01-01T04:44:05.784Z,8.42
2018-01-01T04:45:14.376Z,8.28
2018-01-01T04:46:22.992Z,8.35
2018-01-01T04:47:31.598Z,8.26
2018-01-01T04:48:40.189Z,8.34
2018-01-01T04:49:48.800Z,8.27
2018-01-01T04:50:57.401Z,8.28
2018-01-01T04:52:06.005Z,8.2
2018-01-01T04:53:14.601Z,8.24
2018-01-01T04:54:23.191Z,8.31
2018-01-01T04:55:31.804Z,8.27
2018-01-01T04:56:40.406Z,8.23
2018-01-01T04:57:49.001Z,8.24
2018-01-01T04:58:57.606Z,8.21
2018-01-01T05:00:06.216Z,8.31
2018-01-01T05:01:14.803Z,8.27
2018-01-01T05:02:23.406Z,8.27
2018-01-01T05:03:32.016Z,8.31
2018-01-01T05:04:40.610Z,8.2
2018-01-01T05:05:49.212Z,8.26
2018-01-01T05:06:57.809Z,8.26
2018-01-01T05:08:06.417Z,8.26
2018-01-01T05:09:15.026Z,8.28
2018-01-01T05:10:23.618Z,8.24
2018-01-01T05:11:32.223Z,8.26
2018-01-01T05:12:40.838Z,8.2
2018-01-01T05:13:49.689Z,8.2
2018-01-01T05:14:58.286Z,8.06
2018-01-01T05:16:06.904Z,7.95
2018-01-01T05:17:15.512Z,7.84
2018-01-01T05:18:24.097Z,7.77
2018-01-01T05:19:32.707Z,7.78
2018-01-01T05:20:41.302Z,7.64
2018-01-01T05:21:49.912Z,7.44
2018-01-01T05:22:58.502Z,7.41
2018-01-01T05:24:07.101Z,7.43
2018-01-01T05:25:15.712Z,7.33
2018-01-01T05:26:24.307Z,7.29
2018-01-01T05:27:32.903Z,7.19
2018-01-01T05:28:41.519Z,7.08
2018-01-01T05:29:50.122Z,7.05
2018-01-01T05:30:58.709Z,7.04
2018-01-01T05:32:07.322Z,7.07
2018-01-01T05:33:15.922Z,7.08
2018-01-01T05:34:24.516Z,7.07
2018-01-01T05:35:33.123Z,7.08
2018-01-01T05:36:41.717Z,7.05
2018-01-01T05:37:50.330Z,7.04
2018-01-01T05:38:58.925Z,6.92
2018-01-01T05:40:07.523Z,6.93
2018-01-01T05:41:16.131Z,6.92
2018-01-01T05:42:24.735Z,6.86
2018-01-01T05:43:33.323Z,6.8
2018-01-01T05:44:41.935Z,6.78
2018-01-01T05:45:50.544Z,6.71
2018-01-01T05:46:59.131Z,6.8
2018-01-01T05:48:07.996Z,6.8
2018-01-01T05:49:16.607Z,6.77
2018-01-01T05:50:25.202Z,6.83
2018-01-01T05:51:33.803Z,6.86
2018-01-01T05:52:42.671Z,6.85
2018-01-01T05:53:51.257Z,6.82
2018-01-01T05:54:59.862Z,6.82
2018-01-01T05:56:08.457Z,6.82
2018-01-01T05:57:17.060Z,6.82
2018-01-01T05:58:25.674Z,6.83
2018-01-01T05:59:34.262Z,6.83
2018-01-01T06:00:42.865Z,6.77
2018-01-01T06:01:51.471Z,6.78
2018-01-01T06:03:00.066Z,6.78
2018-01-01T06:04:08.658Z,6.82
2018-01-01T06:05:17.521Z,6.87
2018-01-01T06:06:26.126Z,6.93
2018-01-01T06:07:34.743Z,7.04
2018-01-01T06:08:43.590Z,7.07
2018-01-01T06:09:52.187Z,7.05
2018-01-01T06:11:00.801Z,7.07
2018-01-01T06:12:09.395Z,7.14
2018-01-01T06:13:17.993Z,7.03
2018-01-01T06:14:26.866Z,7.03
2018-01-01T06:15:35.465Z,7.01
2018-01-01T06:16:44.053Z,7.01
2018-01-01T06:17:52.664Z,7.01
2018-01-01T06:19:01.270Z,6.89
2018-01-01T06:20:09.872Z,6.93
2018-01-01T06:21:18.725Z,6.89
2018-01-01T06:22:27.320Z,6.93
2018-01-01T06:23:36.199Z,6.77
2018-01-01T06:24:44.796Z,6.89
2018-01-01T06:25:53.393Z,6.82
2018-01-01T06:27:02.009Z,6.83
2018-01-01T06:28:10.621Z,6.77
2018-01-01T06:29:19.206Z,6.86
2018-01-01T06:30:27.812Z,6.8
2018-01-01T06:31:36.420Z,6.89
2018-01-01T06:32:45.267Z,6.95
2018-01-01T06:33:53.872Z,6.83
2018-01-01T06:35:02.488Z,6.77
2018-01-01T06:36:11.077Z,6.78
2018-01-01T06:37:19.673Z,6.83
2018-01-01T06:38:28.289Z,6.77
2018-01-01T06:39:36.887Z,6.86
2018-01-01T06:40:45.749Z,6.82
2018-01-01T06:41:54.360Z,6.78
2018-01-01T06:43:02.961Z,6.89
2018-01-01T06:44:11.550Z,6.9
2018-01-01T06:45:20.162Z,6.87
2018-01-01T06:46:28.766Z,6.9
2018-01-01T06:47:37.360Z,6.87
2018-01-01T06:48:45.967Z,6.9
2018-01-01T06:49:54.560Z,6.89
2018-01-01T06:51:03.692Z,6.89
2018-01-01T06:52:12.291Z,6.95
2018-01-01T06:53:20.884Z,6.97
2018-01-01T06:54:29.493Z,6.93
2018-01-01T06:55:38.093Z,6.87
2018-01-01T06:56:46.686Z,6.89
2018-01-01T06:57:55.293Z,6.87
2018-01-01T06:59:03.903Z,6.78
2018-01-01T07:00:12.500Z,6.67
2018-01-01T07:01:21.100Z,6.56
2018-01-01T07:02:29.711Z,6.57
2018-01-01T07:03:38.308Z,6.44
2018-01-01T07:04:46.914Z,6.41
2018-01-01T07:05:55.502Z,6.41
2018-01-01T07:07:04.110Z,6.35
2018-01-01T07:08:12.714Z,6.35
2018-01-01T07:09:21.310Z,6.32
2018-01-01T07:10:29.913Z,6.35
2018-01-01T07:11:38.522Z,6.29
2018-01-01T07:12:47.122Z,6.43
2018-01-01T07:13:55.721Z,6.43
2018-01-01T07:15:04.335Z,6.52
2018-01-01T07:16:12.944Z,6.5
2018-01-01T07:17:21.535Z,6.56
2018-01-01T07:18:30.138Z,6.54
2018-01-01T07:19:38.740Z,6.59
2018-01-01T07:20:47.354Z,6.53
2018-01-01T07:21:56.199Z,6.46
2018-01-01T07:23:04.801Z,6.35
2018-01-01T07:24:13.409Z,6.26
2018-01-01T07:25:22.005Z,6.15
2018-01-01T07:26:30.600Z,6.17
2018-01-01T07:27:39.215Z,6.02
2018-01-01T07:28:47.812Z,5.9
2018-01-01T07:29:56.403Z,5.9
2018-01-01T07:31:05.015Z,5.77
2018-01-01T07:32:13.616Z,5.62
2018-01-01T07:33:22.220Z,5.69
2018-01-01T07:34:30.817Z,5.59
2018-01-01T07:35:39.411Z,5.62
2018-01-01T07:36:48.022Z,5.55
2018-01-01T07:37:56.620Z,5.51
2018-01-01T07:39:05.254Z,5.41
2018-01-01T07:40:13.823Z,5.43
2018-01-01T07:41:22.427Z,5.38
2018-01-01T07:42:31.019Z,5.44
2018-01-01T07:43:39.622Z,5.52
2018-01-01T07:44:48.232Z,5.55
2018-01-01T07:45:56.820Z,5.47
2018-01-01T07:47:05.425Z,5.55
2018-01-01T07:48:14.018Z,5.51
2018-01-01T07:49:22.626Z,5.61
2018-01-01T07:50:31.227Z,5.64
2018-01-01T07:51:39.817Z,5.56
2018-01-01T07:52:48.423Z,5.59
2018-01-01T07:53:57.032Z,5.56
2018-01-01T07:55:05.627Z,5.58
2018-01-01T07:56:14.224Z,5.55
2018-01-01T07:57:22.833Z,5.59
2018-01-01T07:58:31.423Z,5.62
2018-01-01T07:59:40.022Z,5.59
2018-01-01T08:00:48.636Z,5.67
2018-01-01T08:01:57.228Z,5.67
2018-01-01T08:03:05.837Z,5.76
2018-01-01T08:04:14.428Z,5.73
2018-01-01T08:05:23.031Z,5.7
2018-01-01T08:06:31.640Z,5.67
2018-01-01T08:07:40.230Z,5.67
2018-01-01T08:08:48.829Z,5.64
2018-01-01T08:09:57.439Z,5.72
2018-01-01T08:11:06.036Z,5.79
2018-01-01T08:12:14.629Z,5.77
2018-01-01T08:13:23.240Z,5.77
2018-01-01T08:14:31.839Z,5.87
2018-01-01T08:15:40.426Z,5.91
2018-01-01T08:16:49.034Z,5.94
2018-01-01T08:17:57.636Z,5.99
2018-01-01T08:19:06.242Z,6.02
2018-01-01T08:20:14.834Z,6.09
2018-01-01T08:21:23.427Z,6.25
2018-01-01T08:22:32.041Z,6.25
2018-01-01T08:23:40.639Z,6.25
2018-01-01T08:24:49.231Z,6.36
2018-01-01T08:25:57.842Z,6.32
2018-01-01T08:27:06.443Z,6.35
2018-01-01T08:28:15.035Z,6.35
2018-01-01T08:29:23.639Z,6.38
2018-01-01T08:30:32.250Z,6.43
2018-01-01T08:31:41.095Z,6.44
2018-01-01T08:32:49.694Z,6.39
2018-01-01T08:33:58.309Z,6.36
2018-01-01T08:35:06.898Z,6.49
2018-01-01T08:36:15.505Z,6.46
2018-01-01T08:37:24.112Z,6.54
2018-01-01T08:38:32.706Z,6.54
2018-01-01T08:39:41.305Z,6.54
2018-01-01T08:40:49.912Z,6.49
2018-01-01T08:41:58.512Z,6.53
2018-01-01T08:43:07.099Z,6.57
2018-01-01T08:44:15.711Z,6.57
2018-01-01T08:45:24.577Z,6.57
2018-01-01T08:46:33.441Z,6.59
2018-01-01T08:47:42.038Z,6.62
2018-01-01T08:48:50.633Z,6.67
2018-01-01T08:49:59.247Z,6.64
2018-01-01T08:51:07.847Z,6.71
2018-01-01T08:52:16.437Z,6.67
2018-01-01T08:53:25.051Z,6.7
2018-01-01T08:54:33.654Z,6.68
2018-01-01T08:55:42.248Z,6.71
2018-01-01T08:56:50.855Z,6.64
2018-01-01T08:57:59.463Z,6.71
2018-01-01T08:59:08.050Z,6.71
2018-01-01T09:00:16.956Z,6.71
2018-01-01T09:01:25.550Z,6.64
2018-01-01T09:02:34.163Z,6.65
2018-01-01T09:03:42.769Z,6.74
2018-01-01T09:04:51.357Z,6.71
2018-01-01T09:05:59.964Z,6.67
2018-01-01T09:07:08.574Z,6.75
2018-01-01T09:08:17.164Z,6.8
2018-01-01T09:09:25.769Z,6.82
2018-01-01T09:10:34.380Z,6.77
2018-01-01T09:11:42.973Z,6.95
2018-01-01T09:12:51.572Z,6.93
2018-01-01T09:14:00.185Z,6.93
2018-01-01T09:15:08.779Z,6.89
2018-01-01T09:16:17.384Z,6.95
2018-01-01T09:17:25.974Z,7.03
2018-01-01T09:18:34.578Z,7.01
2018-01-01T09:19:43.190Z,7.03
2018-01-01T09:20:51.786Z,7.1
2018-01-01T09:22:00.380Z,7.05
2018-01-01T09:23:08.992Z,6.89
2018-01-01T09:24:17.589Z,6.96
2018-01-01T09:25:26.187Z,7.01
2018-01-01T09:26:34.796Z,7.05
2018-01-01T09:27:43.654Z,7.03
2018-01-01T09:28:52.244Z,7.07
2018-01-01T09:30:00.859Z,7.21
2018-01-01T09:31:09.459Z,7.22
2018-01-01T09:32:18.053Z,7.22
2018-01-01T09:33:26.660Z,7.29
2018-01-01T09:34:35.267Z,7.25
2018-01-01T09:35:43.861Z,7.31
2018-01-01T09:36:52.464Z,7.37
2018-01-01T09:38:01.332Z,7.26
2018-01-01T09:39:09.930Z,7.29
2018-01-01T09:40:18.526Z,7.43
2018-01-01T09:41:27.134Z,7.39
2018-01-01T09:42:35.729Z,7.39
2018-01-01T09:43:44.323Z,7.48
2018-01-01T09:44:52.930Z,7.47
2018-01-01T09:46:01.536Z,7.44
2018-01-01T09:47:10.144Z,7.61
2018-01-01T09:48:18.737Z,7.47
2018-01-01T09:49:27.595Z,7.58
2018-01-01T09:50:36.205Z,7.53
2018-01-01T09:51:44.798Z,7.58
2018-01-01T09:52:53.395Z,7.64
2018-01-01T09:54:02.006Z,7.62
2018-01-01T09:55:10.606Z,7.62
2018-01-01T09:56:19.196Z,7.61
2018-01-01T09:57:27.808Z,7.74
2018-01-01T09:58:36.410Z,7.7
2018-01-01T09:59:45.016Z,7.78
2018-01-01T10:00:53.608Z,7.8
2018-01-01T10:02:02.209Z,7.8
2018-01-01T10:03:10.823Z,7.75
2018-01-01T10:04:19.420Z,7.72
2018-01-01T10:05:28.012Z,7.81
2018-01-01T10:06:36.625Z,7.83
2018-01-01T10:07:45.229Z,7.87
2018-01-01T10:08:53.821Z,7.93
2018-01-01T10:10:02.430Z,7.88
2018-01-01T10:11:11.036Z,7.9
2018-01-01T10:12:19.624Z,7.9
2018-01-01T10:13:28.230Z,7.93
2018-01-01T10:14:36.829Z,7.93
2018-01-01T10:15:45.437Z,7.88
2018-01-01T10:16:54.043Z,7.83
2018-01-01T10:18:02.633Z,7.88
2018-01-01T10:19:11.244Z,7.74
2018-01-01T10:20:19.854Z,7.87
2018-01-01T10:21:28.448Z,7.84
2018-01-01T10:22:37.053Z,7.84
2018-01-01T10:23:45.663Z,7.87
2018-01-01T10:24:54.258Z,7.83
2018-01-01T10:26:02.858Z,7.78
2018-01-01T10:27:11.474Z,7.84
2018-01-01T10:28:20.069Z,7.81
2018-01-01T10:29:28.667Z,7.7
2018-01-01T10:30:37.535Z,7.84
2018-01-01T10:31:46.134Z,7.72
2018-01-01T10:32:54.723Z,7.74
2018-01-01T10:34:03.341Z,7.75
2018-01-01T10:35:11.944Z,7.74
2018-01-01T10:36:20.534Z,7.77
2018-01-01T10:37:29.144Z,7.75
2018-01-01T10:38:37.749Z,7.84
2018-01-01T10:39:46.406Z,7.83
2018-01-01T10:40:55.263Z,8.01
2018-01-01T10:42:03.880Z,8.02
2018-01-01T10:43:12.733Z,8.05
2018-01-01T10:44:21.341Z,8.09
2018-01-01T10:45:29.933Z,8.02
2018-01-01T10:46:38.542Z,8.14
2018-01-01T10:47:47.149Z,8.13
2018-01-01T10:48:55.738Z,8.14
2018-01-01T10:50:04.604Z,8.14
2018-01-01T10:51:13.218Z,8.14
2018-01-01T10:52:21.812Z,8.18
2018-01-01T10:53:30.414Z,8.18
2018-01-01T10:54:39.026Z,8.08
2018-01-01T10:55:47.623Z,8.18
2018-01-01T10:56:56.219Z,8.14
2018-01-01T10:58:04.823Z,8.16
2018-01-01T10:59:13.432Z,8.11
2018-01-01T11:00:22.302Z,8.21
2018-01-01T11:01:30.891Z,8.17
2018-01-01T11:02:39.493Z,8.16
2018-01-01T11:03:48.368Z,8.16
2018-01-01T11:04:56.964Z,8.13
2018-01-01T11:06:05.562Z,8.17
2018-01-01T11:07:14.171Z,8.14
2018-01-01T11:08:23.041Z,8.05
2018-01-01T11:09:31.620Z,8.16
2018-01-01T11:10:40.234Z,8.03
2018-01-01T11:11:48.840Z,8.06
2018-01-01T11:12:57.444Z,8.09
2018-01-01T11:14:06.043Z,8.14
2018-01-01T11:15:14.640Z,8.23
2018-01-01T11:16:23.248Z,8.14
2018-01-01T11:17:31.847Z,8.2
2018-01-01T11:18:40.438Z,8.17
2018-01-01T11:19:49.053Z,8.18
2018-01-01T11:20:57.658Z,8.18
2018-01-01T11:22:06.251Z,8.26
2018-01-01T11:23:14.862Z,8.18
2018-01-01T11:24:23.473Z,8.16
2018-01-01T11:25:32.319Z,8.13
2018-01-01T11:26:40.926Z,8.17
2018-01-01T11:27:49.521Z,8.13
2018-01-01T11:28:58.140Z,8.14
2018-01-01T11:30:06.751Z,8.09
2018-01-01T11:31:15.599Z,8.11
2018-01-01T11:32:24.208Z,8.21
2018-01-01T11:33:32.812Z,8.14
2018-01-01T11:34:41.411Z,8.27
2018-01-01T11:35:50.269Z,8.28
2018-01-01T11:36:58.882Z,8.26
2018-01-01T11:38:07.473Z,8.31
2018-01-01T11:39:16.077Z,8.34
2018-01-01T11:40:24.686Z,8.32
2018-01-01T11:41:33.283Z,8.42
2018-01-01T11:42:41.891Z,8.38
2018-01-01T11:43:50.481Z,8.39
2018-01-01T11:44:59.084Z,8.44
2018-01-01T11:46:07.698Z,8.41
2018-01-01T11:47:16.294Z,8.31
2018-01-01T11:48:24.894Z,8.42
2018-01-01T11:49:33.505Z,8.42
2018-01-01T11:50:42.356Z,8.46
2018-01-01T11:51:50.949Z,8.39
2018-01-01T11:52:59.563Z,8.44
2018-01-01T11:54:08.189Z,8.39
2018-01-01T11:55:16.780Z,8.31
2018-01-01T11:56:25.388Z,8.45
2018-01-01T11:57:33.988Z,8.44
2018-01-01T11:58:42.604Z,8.39
2018-01-01T11:59:51.200Z,8.49
2018-01-01T12:00:59.796Z,8.42
2018-01-01T12:02:08.667Z,8.44
2018-01-01T12:03:17.268Z,8.41
2018-01-01T12:04:26.119Z,8.41
2018-01-01T12:05:34.735Z,8.44
2018-01-01T12:06:43.342Z,8.42
2018-01-01T12:07:51.967Z,8.45
2018-01-01T12:09:00.802Z,8.42
2018-01-01T12:10:09.412Z,8.5
2018-01-01T12:11:18.015Z,8.5
2018-01-01T12:12:26.618Z,8.49
2018-01-01T12:13:35.206Z,8.53
2018-01-01T12:14:43.824Z,8.54
2018-01-01T12:15:52.434Z,8.44
2018-01-01T12:17:01.030Z,8.42
2018-01-01T12:18:09.636Z,8.44
2018-01-01T12:19:18.246Z,8.54
2018-01-01T12:20:26.841Z,8.54
2018-01-01T12:21:35.702Z,8.56
2018-01-01T12:22:44.322Z,8.57
2018-01-01T12:23:52.908Z,8.63
2018-01-01T12:25:01.512Z,8.6
2018-01-01T12:26:10.125Z,8.59
2018-01-01T12:27:18.977Z,8.59
2018-01-01T12:28:27.568Z,8.64
2018-01-01T12:29:36.185Z,8.6
2018-01-01T12:30:44.817Z,8.57
2018-01-01T12:31:53.380Z,8.6
2018-01-01T12:33:01.993Z,8.61
2018-01-01T12:34:10.601Z,8.61
2018-01-01T12:35:19.193Z,8.61
2018-01-01T12:36:27.845Z,8.59
2018-01-01T12:37:36.411Z,8.61
2018-01-01T12:38:45.008Z,8.52
2018-01-01T12:39:53.615Z,8.54
2018-01-01T12:41:02.209Z,8.6
2018-01-01T12:42:10.852Z,8.61
2018-01-01T12:43:19.430Z,8.63
2018-01-01T12:44:28.023Z,8.63
2018-01-01T12:45:36.634Z,8.6
2018-01-01T12:46:45.242Z,8.61
2018-01-01T12:47:53.842Z,8.6
2018-01-01T12:49:02.446Z,8.6
2018-01-01T12:50:11.061Z,8.6
2018-01-01T12:51:19.914Z,8.6
2018-01-01T12:52:28.514Z,8.71
2018-01-01T12:53:37.129Z,8.74
2018-01-01T12:54:45.723Z,8.63
2018-01-01T12:55:54.334Z,8.69
2018-01-01T12:57:02.925Z,8.75
2018-01-01T12:58:11.532Z,8.74
2018-01-01T12:59:20.143Z,8.75
2018-01-01T13:00:29.053Z,8.79
2018-01-01T13:01:37.655Z,8.79
2018-01-01T13:02:46.267Z,8.72
2018-01-01T13:03:54.867Z,8.72
2018-01-01T13:05:03.468Z,8.74
2018-01-01T13:06:12.080Z,8.75
2018-01-01T13:07:20.684Z,8.75
2018-01-01T13:08:29.539Z,8.71
2018-01-01T13:09:38.147Z,8.81
2018-01-01T13:10:46.750Z,8.72
2018-01-01T13:11:55.624Z,8.84
2018-01-01T13:13:04.217Z,8.69
2018-01-01T13:14:12.817Z,8.74
2018-01-01T13:15:21.428Z,8.77
2018-01-01T13:16:30.036Z,8.79
2018-01-01T13:17:38.625Z,8.78
2018-01-01T13:18:47.238Z,8.72
2018-01-01T13:19:55.846Z,8.75
2018-01-01T13:21:04.442Z,8.78
2018-01-01T13:22:13.308Z,8.75
2018-01-01T13:23:21.914Z,8.66
2018-01-01T13:24:30.544Z,8.71
2018-01-01T13:25:39.123Z,8.71
2018-01-01T13:26:47.716Z,8.66
2018-01-01T13:27:56.332Z,8.56
2018-01-01T13:29:04.940Z,8.64
2018-01-01T13:30:13.796Z,8.57
2018-01-01T13:31:22.410Z,8.54
2018-01-01T13:32:31.034Z,8.63
2018-01-01T13:33:39.615Z,8.54
2018-01-01T13:34:48.480Z,8.61
2018-01-01T13:35:57.093Z,8.59
2018-01-01T13:37:05.687Z,8.52
2018-01-01T13:38:14.289Z,8.49
2018-01-01T13:39:22.886Z,8.56
2018-01-01T13:40:31.495Z,8.53
2018-01-01T13:41:40.107Z,8.46
2018-01-01T13:42:48.699Z,8.46
2018-01-01T13:43:57.310Z,8.44
2018-01-01T13:45:05.921Z,8.45
2018-01-01T13:46:14.511Z,8.45
2018-01-01T13:47:23.110Z,8.38
2018-01-01T13:48:31.726Z,8.46
2018-01-01T13:49:40.321Z,8.38
2018-01-01T13:50:48.921Z,8.42
2018-01-01T13:51:57.533Z,8.45
2018-01-01T13:53:06.131Z,8.45
2018-01-01T13:54:14.741Z,8.36
2018-01-01T13:55:23.333Z,8.28
2018-01-01T13:56:31.936Z,8.27
2018-01-01T13:57:40.549Z,8.24
2018-01-01T13:58:49.153Z,8.28
2018-01-01T13:59:58.005Z,8.28
2018-01-01T14:01:06.627Z,8.35
2018-01-01T14:02:15.745Z,8.31
2018-01-01T14:03:24.336Z,8.39
2018-01-01T14:04:32.952Z,8.42
2018-01-01T14:05:41.556Z,8.45
2018-01-01T14:06:50.151Z,8.42
2018-01-01T14:07:58.756Z,8.36
2018-01-01T14:09:07.355Z,8.42
2018-01-01T14:10:15.970Z,8.42
2018-01-01T14:11:24.578Z,8.45
2018-01-01T14:12:33.173Z,8.49
2018-01-01T14:13:41.784Z,8.41
2018-01-01T14:14:50.388Z,8.45
2018-01-01T14:15:58.980Z,8.5
2018-01-01T14:17:07.593Z,8.42
2018-01-01T14:18:16.243Z,8.49
2018-01-01T14:19:24.794Z,8.49
2018-01-01T14:20:33.396Z,8.49
2018-01-01T14:21:42.010Z,8.5
2018-01-01T14:22:50.604Z,8.5
2018-01-01T14:23:59.216Z,8.54
2018-01-01T14:25:07.819Z,8.56
2018-01-01T14:26:16.418Z,8.5
2018-01-01T14:27:25.012Z,8.53
2018-01-01T14:28:33.627Z,8.53
2018-01-01T14:29:42.485Z,8.53
2018-01-01T14:30:51.075Z,8.49
2018-01-01T14:31:59.691Z,8.46
2018-01-01T14:33:08.556Z,8.49
2018-01-01T14:34:17.148Z,8.53
2018-01-01T14:35:25.758Z,8.53
2018-01-01T14:36:34.369Z,8.42
2018-01-01T14:37:42.971Z,8.49
2018-01-01T14:38:51.575Z,8.5
2018-01-01T14:40:00.166Z,8.46
2018-01-01T14:41:08.783Z,8.42
2018-01-01T14:42:17.386Z,8.42
2018-01-01T14:43:25.983Z,8.41
2018-01-01T14:44:34.853Z,8.46
2018-01-01T14:45:43.465Z,8.46
2018-01-01T14:46:52.057Z,8.46
2018-01-01T14:48:00.662Z,8.46
2018-01-01T14:49:09.275Z,8.46
2018-01-01T14:50:17.869Z,8.44
2018-01-01T14:51:26.475Z,8.44
2018-01-01T14:52:35.073Z,8.46
2018-01-01T14:53:43.685Z,8.49
2018-01-01T14:54:52.298Z,8.5
2018-01-01T14:56:01.146Z,8.56
2018-01-01T14:57:09.752Z,8.5
2018-01-01T14:58:18.365Z,8.46
2018-01-01T14:59:26.959Z,8.44
2018-01-01T15:00:35.562Z,8.42
2018-01-01T15:01:44.178Z,8.42
2018-01-01T15:02:52.775Z,8.45
2018-01-01T15:04:01.374Z,8.42
2018-01-01T15:05:09.985Z,8.41
2018-01-01T15:06:18.587Z,8.49
2018-01-01T15:07:27.197Z,8.42
2018-01-01T15:08:35.795Z,8.39
2018-01-01T15:09:44.656Z,8.5
2018-01-01T15:10:53.269Z,8.42
2018-01-01T15:12:01.868Z,8.46
2018-01-01T15:13:10.467Z,8.44
2018-01-01T15:14:19.083Z,8.41
2018-01-01T15:15:27.681Z,8.39
2018-01-01T15:16:36.272Z,8.39